Maury, North Carolina
Current Conditions -  °F | °C
As of 2:56 PM on Monday 22 Dec 2014 (Local Time) from KISO Reporting Station
Haze Haze  
Wind Chill: 38°   Ceiling: 600
Heat Index: 45°   Visibility: 2mi
Dew Point: 45°   Wind: 13mph
Humidity: 100%   Direction: 340°NNW
Pressure: 30.03"   Gusts: NA
Location:  35.48°N, 77.59°W
Report Text: KISO 221956Z AUTO 34011KT 2SM BR OVC006 07/07 A3003 RMK AO2
Loading
Personal Weather Stations






























Interactive Weather Map New forecast layout! Learn more

10-Day Weather Forecast

Advertisements
Track Severe Weather on mobile